sensor_id;sensor_type;location;lat;lon;timestamp;pressure;altitude;pressure_sealevel;temperature;humidity
46722;BME280;32455;43.430;23.136;2024-03-17T00:02:23;59042.03;;;0.00;0.00
46722;BME280;32455;43.430;23.136;2024-03-17T00:06:08;59042.03;;;0.00;0.00
46722;BME280;32455;43.430;23.136;2024-03-17T00:09:53;59042.03;;;0.00;0.00
46722;BME280;32455;43.430;23.136;2024-03-17T00:13:38;59042.03;;;0.00;0.00
46722;BME280;32455;43.430;23.136;2024-03-17T00:17:22;59042.03;;;0.00;0.00
46722;BME280;32455;43.430;23.136;2024-03-17T00:21:08;59042.03;;;0.00;0.00
46722;BME280;32455;43.430;23.136;2024-03-17T00:24:52;59042.03;;;0.00;0.00
46722;BME280;32455;43.430;23.136;2024-03-17T00:28:37;59042.03;;;0.00;0.00
46722;BME280;32455;43.430;23.136;2024-03-17T00:32:22;59042.03;;;0.00;0.00
46722;BME280;32455;43.430;23.136;2024-03-17T00:36:08;59042.03;;;0.00;0.00
46722;BME280;32455;43.430;23.136;2024-03-17T00:39:53;59042.03;;;0.00;0.00
46722;BME280;32455;43.430;23.136;2024-03-17T00:43:37;59042.03;;;0.00;0.00
46722;BME280;32455;43.430;23.136;2024-03-17T00:47:21;59042.03;;;0.00;0.00
46722;BME280;32455;43.430;23.136;2024-03-17T00:51:06;59042.03;;;0.00;0.00
46722;BME280;32455;43.430;23.136;2024-03-17T00:54:50;59042.03;;;0.00;0.00
46722;BME280;32455;43.430;23.136;2024-03-17T00:58:35;59042.03;;;0.00;0.00
46722;BME280;32455;43.430;23.136;2024-03-17T01:02:19;59042.03;;;0.00;0.00
46722;BME280;32455;43.430;23.136;2024-03-17T01:06:06;59042.03;;;0.00;0.00
46722;BME280;32455;43.430;23.136;2024-03-17T01:09:50;59042.03;;;0.00;0.00
46722;BME280;32455;43.430;23.136;2024-03-17T01:13:35;59042.03;;;0.00;0.00
46722;BME280;32455;43.430;23.136;2024-03-17T01:17:25;59042.03;;;0.00;0.00
46722;BME280;32455;43.430;23.136;2024-03-17T01:21:10;59042.03;;;0.00;0.00
46722;BME280;32455;43.430;23.136;2024-03-17T01:24:55;59042.03;;;0.00;0.00
46722;BME280;32455;43.430;23.136;2024-03-17T01:28:39;59042.03;;;0.00;0.00
46722;BME280;32455;43.430;23.136;2024-03-17T01:32:24;59042.03;;;0.00;0.00
46722;BME280;32455;43.430;23.136;2024-03-17T01:36:09;59042.03;;;0.00;0.00
46722;BME280;32455;43.430;23.136;2024-03-17T01:39:53;59042.03;;;0.00;0.00
46722;BME280;32455;43.430;23.136;2024-03-17T01:43:39;59042.03;;;0.00;0.00
46722;BME280;32455;43.430;23.136;2024-03-17T01:47:23;59042.03;;;0.00;0.00
46722;BME280;32455;43.430;23.136;2024-03-17T01:51:10;59042.03;;;0.00;0.00
46722;BME280;32455;43.430;23.136;2024-03-17T01:54:55;59042.03;;;0.00;0.00
46722;BME280;32455;43.430;23.136;2024-03-17T01:58:40;59042.03;;;0.00;0.00
46722;BME280;32455;43.430;23.136;2024-03-17T02:02:28;59042.03;;;0.00;0.00
46722;BME280;32455;43.430;23.136;2024-03-17T02:06:13;59042.03;;;0.00;0.00
46722;BME280;32455;43.430;23.136;2024-03-17T02:09:58;59042.03;;;0.00;0.00
46722;BME280;32455;43.430;23.136;2024-03-17T02:13:43;59042.03;;;0.00;0.00
46722;BME280;32455;43.430;23.136;2024-03-17T02:17:28;59042.03;;;0.00;0.00
46722;BME280;32455;43.430;23.136;2024-03-17T02:21:13;59042.03;;;0.00;0.00
46722;BME280;32455;43.430;23.136;2024-03-17T02:24:59;59042.03;;;0.00;0.00
46722;BME280;32455;43.430;23.136;2024-03-17T02:28:44;59042.03;;;0.00;0.00
46722;BME280;32455;43.430;23.136;2024-03-17T02:32:28;59042.03;;;0.00;0.00
46722;BME280;32455;43.430;23.136;2024-03-17T02:36:13;59042.03;;;0.00;0.00
46722;BME280;32455;43.430;23.136;2024-03-17T02:39:58;59042.03;;;0.00;0.00
46722;BME280;32455;43.430;23.136;2024-03-17T02:43:42;59042.03;;;0.00;0.00
46722;BME280;32455;43.430;23.136;2024-03-17T02:47:27;59042.03;;;0.00;0.00
46722;BME280;32455;43.430;23.136;2024-03-17T02:51:14;59042.03;;;0.00;0.00
46722;BME280;32455;43.430;23.136;2024-03-17T02:55:00;59042.03;;;0.00;0.00
46722;BME280;32455;43.430;23.136;2024-03-17T02:58:45;59042.03;;;0.00;0.00
46722;BME280;32455;43.430;23.136;2024-03-17T03:02:33;59042.03;;;0.00;0.00
46722;BME280;32455;43.430;23.136;2024-03-17T03:06:18;59042.03;;;0.00;0.00
46722;BME280;32455;43.430;23.136;2024-03-17T03:10:04;59042.03;;;0.00;0.00
46722;BME280;32455;43.430;23.136;2024-03-17T03:13:49;59042.03;;;0.00;0.00
46722;BME280;32455;43.430;23.136;2024-03-17T03:17:34;59042.03;;;0.00;0.00
46722;BME280;32455;43.430;23.136;2024-03-17T03:21:18;59042.03;;;0.00;0.00
46722;BME280;32455;43.430;23.136;2024-03-17T03:25:03;59042.03;;;0.00;0.00
46722;BME280;32455;43.430;23.136;2024-03-17T03:28:48;59042.03;;;0.00;0.00
46722;BME280;32455;43.430;23.136;2024-03-17T03:32:34;59042.03;;;0.00;0.00
46722;BME280;32455;43.430;23.136;2024-03-17T03:36:18;59042.03;;;0.00;0.00
46722;BME280;32455;43.430;23.136;2024-03-17T03:40:04;59042.03;;;0.00;0.00
46722;BME280;32455;43.430;23.136;2024-03-17T03:44:00;59042.03;;;0.00;0.00
46722;BME280;32455;43.430;23.136;2024-03-17T03:47:45;59042.03;;;0.00;0.00
46722;BME280;32455;43.430;23.136;2024-03-17T03:51:29;59042.03;;;0.00;0.00
46722;BME280;32455;43.430;23.136;2024-03-17T03:55:15;59042.03;;;0.00;0.00
46722;BME280;32455;43.430;23.136;2024-03-17T03:59:00;59042.03;;;0.00;0.00
46722;BME280;32455;43.430;23.136;2024-03-17T04:02:45;59042.03;;;0.00;0.00
46722;BME280;32455;43.430;23.136;2024-03-17T04:06:30;59042.03;;;0.00;0.00
46722;BME280;32455;43.430;23.136;2024-03-17T04:10:15;59042.03;;;0.00;0.00
46722;BME280;32455;43.430;23.136;2024-03-17T04:14:03;59042.03;;;0.00;0.00
46722;BME280;32455;43.430;23.136;2024-03-17T04:17:48;59042.03;;;0.00;0.00
46722;BME280;32455;43.430;23.136;2024-03-17T04:21:33;59042.03;;;0.00;0.00
46722;BME280;32455;43.430;23.136;2024-03-17T04:25:17;59042.03;;;0.00;0.00
46722;BME280;32455;43.430;23.136;2024-03-17T04:29:02;59042.03;;;0.00;0.00
46722;BME280;32455;43.430;23.136;2024-03-17T04:32:46;59042.03;;;0.00;0.00
46722;BME280;32455;43.430;23.136;2024-03-17T04:36:30;59042.03;;;0.00;0.00
46722;BME280;32455;43.430;23.136;2024-03-17T04:40:14;59042.03;;;0.00;0.00
46722;BME280;32455;43.430;23.136;2024-03-17T04:43:59;59042.03;;;0.00;0.00
46722;BME280;32455;43.430;23.136;2024-03-17T04:47:44;59042.03;;;0.00;0.00
46722;BME280;32455;43.430;23.136;2024-03-17T04:51:29;59042.03;;;0.00;0.00
46722;BME280;32455;43.430;23.136;2024-03-17T04:55:13;59042.03;;;0.00;0.00
46722;BME280;32455;43.430;23.136;2024-03-17T04:58:58;59042.03;;;0.00;0.00
46722;BME280;32455;43.430;23.136;2024-03-17T05:02:44;59042.03;;;0.00;0.00
46722;BME280;32455;43.430;23.136;2024-03-17T05:06:29;59042.03;;;0.00;0.00
46722;BME280;32455;43.430;23.136;2024-03-17T05:10:14;59042.03;;;0.00;0.00
46722;BME280;32455;43.430;23.136;2024-03-17T05:14:00;59042.03;;;0.00;0.00
46722;BME280;32455;43.430;23.136;2024-03-17T05:17:44;59042.03;;;0.00;0.00
46722;BME280;32455;43.430;23.136;2024-03-17T05:21:29;59042.03;;;0.00;0.00
46722;BME280;32455;43.430;23.136;2024-03-17T05:25:16;59042.03;;;0.00;0.00
46722;BME280;32455;43.430;23.136;2024-03-17T05:29:01;59042.03;;;0.00;0.00
46722;BME280;32455;43.430;23.136;2024-03-17T05:32:46;59042.03;;;0.00;0.00
46722;BME280;32455;43.430;23.136;2024-03-17T05:36:31;59042.03;;;0.00;0.00
46722;BME280;32455;43.430;23.136;2024-03-17T05:40:17;59042.03;;;0.00;0.00
46722;BME280;32455;43.430;23.136;2024-03-17T05:44:02;59042.03;;;0.00;0.00
46722;BME280;32455;43.430;23.136;2024-03-17T05:47:49;59042.03;;;0.00;0.00
46722;BME280;32455;43.430;23.136;2024-03-17T05:51:34;59042.03;;;0.00;0.00
46722;BME280;32455;43.430;23.136;2024-03-17T05:55:18;59042.03;;;0.00;0.00
46722;BME280;32455;43.430;23.136;2024-03-17T05:59:03;59042.03;;;0.00;0.00
46722;BME280;32455;43.430;23.136;2024-03-17T06:02:47;59042.03;;;0.00;0.00
46722;BME280;32455;43.430;23.136;2024-03-17T06:06:33;59042.03;;;0.00;0.00
46722;BME280;32455;43.430;23.136;2024-03-17T06:10:17;59042.03;;;0.00;0.00
46722;BME280;32455;43.430;23.136;2024-03-17T06:14:03;59042.03;;;0.00;0.00
46722;BME280;32455;43.430;23.136;2024-03-17T06:17:50;59042.03;;;0.00;0.00
46722;BME280;32455;43.430;23.136;2024-03-17T06:21:41;59042.03;;;0.00;0.00
46722;BME280;32455;43.430;23.136;2024-03-17T06:25:28;59042.03;;;0.00;0.00
46722;BME280;32455;43.430;23.136;2024-03-17T06:29:13;59042.03;;;0.00;0.00
46722;BME280;32455;43.430;23.136;2024-03-17T06:32:59;59042.03;;;0.00;0.00
46722;BME280;32455;43.430;23.136;2024-03-17T06:36:44;59042.03;;;0.00;0.00
46722;BME280;32455;43.430;23.136;2024-03-17T06:40:28;59042.03;;;0.00;0.00
46722;BME280;32455;43.430;23.136;2024-03-17T06:44:14;59042.03;;;0.00;0.00
46722;BME280;32455;43.430;23.136;2024-03-17T06:47:59;59042.03;;;0.00;0.00
46722;BME280;32455;43.430;23.136;2024-03-17T06:51:43;59042.03;;;0.00;0.00
46722;BME280;32455;43.430;23.136;2024-03-17T06:55:29;59042.03;;;0.00;0.00
46722;BME280;32455;43.430;23.136;2024-03-17T06:59:15;59042.03;;;0.00;0.00
46722;BME280;32455;43.430;23.136;2024-03-17T07:03:00;59042.03;;;0.00;0.00
46722;BME280;32455;43.430;23.136;2024-03-17T07:06:54;59042.03;;;0.00;0.00
46722;BME280;32455;43.430;23.136;2024-03-17T07:10:38;59042.03;;;0.00;0.00
46722;BME280;32455;43.430;23.136;2024-03-17T07:14:22;59042.03;;;0.00;0.00
46722;BME280;32455;43.430;23.136;2024-03-17T07:18:09;59042.03;;;0.00;0.00
46722;BME280;32455;43.430;23.136;2024-03-17T07:22:02;59042.03;;;0.00;0.00
46722;BME280;32455;43.430;23.136;2024-03-17T07:29:39;59042.03;;;0.00;0.00
46722;BME280;32455;43.430;23.136;2024-03-17T07:33:24;59042.03;;;0.00;0.00
46722;BME280;32455;43.430;23.136;2024-03-17T07:37:09;59042.03;;;0.00;0.00
46722;BME280;32455;43.430;23.136;2024-03-17T07:44:44;59042.03;;;0.00;0.00
46722;BME280;32455;43.430;23.136;2024-03-17T07:48:30;59042.03;;;0.00;0.00
46722;BME280;32455;43.430;23.136;2024-03-17T07:52:15;59042.03;;;0.00;0.00
46722;BME280;32455;43.430;23.136;2024-03-17T07:56:01;59042.03;;;0.00;0.00
46722;BME280;32455;43.430;23.136;2024-03-17T07:59:50;59042.03;;;0.00;0.00
46722;BME280;32455;43.430;23.136;2024-03-17T08:03:36;59042.03;;;0.00;0.00
46722;BME280;32455;43.430;23.136;2024-03-17T08:07:21;59042.03;;;0.00;0.00
46722;BME280;32455;43.430;23.136;2024-03-17T08:11:06;59042.03;;;0.00;0.00
46722;BME280;32455;43.430;23.136;2024-03-17T08:14:51;59042.03;;;0.00;0.00
46722;BME280;32455;43.430;23.136;2024-03-17T08:18:36;59042.03;;;0.00;0.00
46722;BME280;32455;43.430;23.136;2024-03-17T08:22:20;59042.03;;;0.00;0.00
46722;BME280;32455;43.430;23.136;2024-03-17T08:26:05;59042.03;;;0.00;0.00
46722;BME280;32455;43.430;23.136;2024-03-17T08:29:50;59042.03;;;0.00;0.00
46722;BME280;32455;43.430;23.136;2024-03-17T08:33:34;59042.03;;;0.00;0.00
46722;BME280;32455;43.430;23.136;2024-03-17T08:37:19;59042.03;;;0.00;0.00
46722;BME280;32455;43.430;23.136;2024-03-17T08:41:05;59042.03;;;0.00;0.00
46722;BME280;32455;43.430;23.136;2024-03-17T08:44:50;59042.03;;;0.00;0.00
46722;BME280;32455;43.430;23.136;2024-03-17T08:48:37;59042.03;;;0.00;0.00
46722;BME280;32455;43.430;23.136;2024-03-17T08:52:22;59042.03;;;0.00;0.00
46722;BME280;32455;43.430;23.136;2024-03-17T08:58:32;62537.69;;;-145.99;100.00
46722;BME280;32455;43.430;23.136;2024-03-17T09:01:17;62537.69;;;-145.99;100.00
46722;BME280;32455;43.430;23.136;2024-03-17T09:04:02;62537.69;;;-145.99;100.00
46722;BME280;32455;43.430;23.136;2024-03-17T09:06:47;62537.69;;;-145.99;100.00
46722;BME280;32455;43.430;23.136;2024-03-17T09:09:33;62537.69;;;-145.99;100.00
46722;BME280;32455;43.430;23.136;2024-03-17T09:12:18;62537.69;;;-145.99;100.00
46722;BME280;32455;43.430;23.136;2024-03-17T09:15:04;62537.69;;;-145.99;100.00
46722;BME280;32455;43.430;23.136;2024-03-17T09:17:50;62537.69;;;-145.99;100.00
46722;BME280;32455;43.430;23.136;2024-03-17T09:20:36;62537.69;;;-145.99;100.00
46722;BME280;32455;43.430;23.136;2024-03-17T09:23:22;62537.69;;;-145.99;100.00
46722;BME280;32455;43.430;23.136;2024-03-17T09:26:10;62537.69;;;-145.99;100.00
46722;BME280;32455;43.430;23.136;2024-03-17T09:29:01;62537.69;;;-145.99;100.00
46722;BME280;32455;43.430;23.136;2024-03-17T09:31:46;62537.69;;;-145.99;100.00
46722;BME280;32455;43.430;23.136;2024-03-17T09:34:32;62537.69;;;-145.99;100.00
46722;BME280;32455;43.430;23.136;2024-03-17T09:37:17;62537.69;;;-145.99;100.00
46722;BME280;32455;43.430;23.136;2024-03-17T09:40:03;62537.69;;;-145.99;100.00
46722;BME280;32455;43.430;23.136;2024-03-17T09:42:51;62537.69;;;-145.99;100.00
46722;BME280;32455;43.430;23.136;2024-03-17T09:45:36;62537.69;;;-145.99;100.00
46722;BME280;32455;43.430;23.136;2024-03-17T09:48:22;62537.69;;;-145.99;100.00
46722;BME280;32455;43.430;23.136;2024-03-17T09:51:25;62537.69;;;-145.99;100.00
46722;BME280;32455;43.430;23.136;2024-03-17T09:54:17;62537.69;;;-145.99;100.00
46722;BME280;32455;43.430;23.136;2024-03-17T09:57:08;62537.69;;;-145.99;100.00
46722;BME280;32455;43.430;23.136;2024-03-17T10:00:04;62537.69;;;-145.99;100.00
46722;BME280;32455;43.430;23.136;2024-03-17T10:02:58;62537.69;;;-145.99;100.00
46722;BME280;32455;43.430;23.136;2024-03-17T10:05:43;62537.69;;;-145.99;100.00
46722;BME280;32455;43.430;23.136;2024-03-17T10:08:29;62537.69;;;-145.99;100.00
46722;BME280;32455;43.430;23.136;2024-03-17T10:11:21;62537.69;;;-145.99;100.00
46722;BME280;32455;43.430;23.136;2024-03-17T10:14:08;62537.69;;;-145.99;100.00
46722;BME280;32455;43.430;23.136;2024-03-17T10:16:53;62537.69;;;-145.99;100.00
46722;BME280;32455;43.430;23.136;2024-03-17T10:19:39;62537.69;;;-145.99;100.00
46722;BME280;32455;43.430;23.136;2024-03-17T10:22:24;62537.69;;;-145.99;100.00
46722;BME280;32455;43.430;23.136;2024-03-17T10:25:10;62537.69;;;-145.99;100.00
46722;BME280;32455;43.430;23.136;2024-03-17T10:27:56;62537.69;;;-145.99;100.00
46722;BME280;32455;43.430;23.136;2024-03-17T10:30:42;62537.69;;;-145.99;100.00
46722;BME280;32455;43.430;23.136;2024-03-17T10:33:27;62537.69;;;-145.99;100.00
46722;BME280;32455;43.430;23.136;2024-03-17T10:36:17;62537.69;;;-145.99;100.00
46722;BME280;32455;43.430;23.136;2024-03-17T10:39:02;62537.69;;;-145.99;100.00
46722;BME280;32455;43.430;23.136;2024-03-17T10:41:48;62537.69;;;-145.99;100.00
46722;BME280;32455;43.430;23.136;2024-03-17T10:44:42;62537.69;;;-145.99;100.00
46722;BME280;32455;43.430;23.136;2024-03-17T10:47:31;62537.69;;;-145.99;100.00
46722;BME280;32455;43.430;23.136;2024-03-17T10:50:22;62537.69;;;-145.99;100.00
46722;BME280;32455;43.430;23.136;2024-03-17T10:53:09;62537.69;;;-145.99;100.00
46722;BME280;32455;43.430;23.136;2024-03-17T10:56:05;62537.69;;;-145.99;100.00
46722;BME280;32455;43.430;23.136;2024-03-17T10:58:55;62537.69;;;-145.99;100.00
46722;BME280;32455;43.430;23.136;2024-03-17T11:01:42;62537.69;;;-145.99;100.00
46722;BME280;32455;43.430;23.136;2024-03-17T11:04:29;62537.69;;;-145.99;100.00
46722;BME280;32455;43.430;23.136;2024-03-17T11:07:17;62537.69;;;-145.99;100.00
46722;BME280;32455;43.430;23.136;2024-03-17T11:10:05;62537.69;;;-145.99;100.00
46722;BME280;32455;43.430;23.136;2024-03-17T11:13:01;62537.69;;;-145.99;100.00
46722;BME280;32455;43.430;23.136;2024-03-17T11:15:49;62537.69;;;-145.99;100.00
46722;BME280;32455;43.430;23.136;2024-03-17T11:18:36;62537.69;;;-145.99;100.00
46722;BME280;32455;43.430;23.136;2024-03-17T11:21:22;62537.69;;;-145.99;100.00
46722;BME280;32455;43.430;23.136;2024-03-17T11:24:20;62537.69;;;-145.99;100.00
46722;BME280;32455;43.430;23.136;2024-03-17T11:27:43;62537.69;;;-145.99;100.00
46722;BME280;32455;43.430;23.136;2024-03-17T11:39:15;62537.69;;;-145.99;100.00
46722;BME280;32455;43.430;23.136;2024-03-17T11:42:12;62537.69;;;-145.99;100.00
46722;BME280;32455;43.430;23.136;2024-03-17T11:45:01;62537.69;;;-145.99;100.00
46722;BME280;32455;43.430;23.136;2024-03-17T11:47:47;62537.69;;;-145.99;100.00
46722;BME280;32455;43.430;23.136;2024-03-17T11:50:33;62537.69;;;-145.99;100.00
46722;BME280;32455;43.430;23.136;2024-03-17T11:53:19;62537.69;;;-145.99;100.00
46722;BME280;32455;43.430;23.136;2024-03-17T11:56:05;62537.69;;;-145.99;100.00
46722;BME280;32455;43.430;23.136;2024-03-17T11:59:11;62537.69;;;-145.99;100.00
46722;BME280;32455;43.430;23.136;2024-03-17T12:01:57;62537.69;;;-145.99;100.00
46722;BME280;32455;43.430;23.136;2024-03-17T12:04:42;62537.69;;;-145.99;100.00
46722;BME280;32455;43.430;23.136;2024-03-17T12:07:28;62537.69;;;-145.99;100.00
46722;BME280;32455;43.430;23.136;2024-03-17T12:10:16;62537.69;;;-145.99;100.00
46722;BME280;32455;43.430;23.136;2024-03-17T12:13:02;62537.69;;;-145.99;100.00
46722;BME280;32455;43.430;23.136;2024-03-17T12:15:47;62537.69;;;-145.99;100.00
46722;BME280;32455;43.430;23.136;2024-03-17T12:18:33;62537.69;;;-145.99;100.00
46722;BME280;32455;43.430;23.136;2024-03-17T12:21:20;62537.69;;;-145.99;100.00
46722;BME280;32455;43.430;23.136;2024-03-17T12:24:15;62537.69;;;-145.99;100.00
46722;BME280;32455;43.430;23.136;2024-03-17T12:27:04;62537.69;;;-145.99;100.00
46722;BME280;32455;43.430;23.136;2024-03-17T12:29:51;62537.69;;;-145.99;100.00
46722;BME280;32455;43.430;23.136;2024-03-17T12:32:37;62537.69;;;-145.99;100.00
46722;BME280;32455;43.430;23.136;2024-03-17T12:35:22;62537.69;;;-145.99;100.00
46722;BME280;32455;43.430;23.136;2024-03-17T12:38:21;62537.69;;;-145.99;100.00
46722;BME280;32455;43.430;23.136;2024-03-17T12:41:16;62537.69;;;-145.99;100.00
46722;BME280;32455;43.430;23.136;2024-03-17T12:44:02;62537.69;;;-145.99;100.00
46722;BME280;32455;43.430;23.136;2024-03-17T12:46:54;62537.69;;;-145.99;100.00
46722;BME280;32455;43.430;23.136;2024-03-17T12:49:51;62537.69;;;-145.99;100.00
46722;BME280;32455;43.430;23.136;2024-03-17T12:52:40;62537.69;;;-145.99;100.00
46722;BME280;32455;43.430;23.136;2024-03-17T12:55:25;62537.69;;;-145.99;100.00
46722;BME280;32455;43.430;23.136;2024-03-17T12:58:30;62537.69;;;-145.99;100.00
46722;BME280;32455;43.430;23.136;2024-03-17T13:01:34;62537.69;;;-145.99;100.00
46722;BME280;32455;43.430;23.136;2024-03-17T13:04:20;62537.69;;;-145.99;100.00
46722;BME280;32455;43.430;23.136;2024-03-17T13:07:11;62537.69;;;-145.99;100.00
46722;BME280;32455;43.430;23.136;2024-03-17T13:09:57;62537.69;;;-145.99;100.00
46722;BME280;32455;43.430;23.136;2024-03-17T13:12:43;62537.69;;;-145.99;100.00
46722;BME280;32455;43.430;23.136;2024-03-17T13:15:29;62537.69;;;-145.99;100.00
46722;BME280;32455;43.430;23.136;2024-03-17T13:18:19;62537.69;;;-145.99;100.00
46722;BME280;32455;43.430;23.136;2024-03-17T13:21:05;62537.69;;;-145.99;100.00
46722;BME280;32455;43.430;23.136;2024-03-17T13:23:51;62537.69;;;-145.99;100.00
46722;BME280;32455;43.430;23.136;2024-03-17T13:26:36;62537.69;;;-145.99;100.00
46722;BME280;32455;43.430;23.136;2024-03-17T13:29:22;62537.69;;;-145.99;100.00
46722;BME280;32455;43.430;23.136;2024-03-17T13:32:07;62537.69;;;-145.99;100.00
46722;BME280;32455;43.430;23.136;2024-03-17T13:34:53;62537.69;;;-145.99;100.00
46722;BME280;32455;43.430;23.136;2024-03-17T13:37:38;62537.69;;;-145.99;100.00
46722;BME280;32455;43.430;23.136;2024-03-17T13:40:23;62537.69;;;-145.99;100.00
46722;BME280;32455;43.430;23.136;2024-03-17T13:43:08;62537.69;;;-145.99;100.00
46722;BME280;32455;43.430;23.136;2024-03-17T13:45:54;62537.69;;;-145.99;100.00
46722;BME280;32455;43.430;23.136;2024-03-17T13:48:40;62537.69;;;-145.99;100.00
46722;BME280;32455;43.430;23.136;2024-03-17T13:51:26;62537.69;;;-145.99;100.00
46722;BME280;32455;43.430;23.136;2024-03-17T13:54:11;62537.69;;;-145.99;100.00
46722;BME280;32455;43.430;23.136;2024-03-17T13:56:56;62537.69;;;-145.99;100.00
46722;BME280;32455;43.430;23.136;2024-03-17T13:59:43;62537.69;;;-145.99;100.00
46722;BME280;32455;43.430;23.136;2024-03-17T14:02:28;62537.69;;;-145.99;100.00
46722;BME280;32455;43.430;23.136;2024-03-17T14:05:15;62537.69;;;-145.99;100.00
46722;BME280;32455;43.430;23.136;2024-03-17T14:08:01;62537.69;;;-145.99;100.00
46722;BME280;32455;43.430;23.136;2024-03-17T14:10:47;62537.69;;;-145.99;100.00
46722;BME280;32455;43.430;23.136;2024-03-17T14:13:32;62537.69;;;-145.99;100.00
46722;BME280;32455;43.430;23.136;2024-03-17T14:16:18;62537.69;;;-145.99;100.00
46722;BME280;32455;43.430;23.136;2024-03-17T14:19:03;62537.69;;;-145.99;100.00
46722;BME280;32455;43.430;23.136;2024-03-17T14:21:48;62537.69;;;-145.99;100.00
46722;BME280;32455;43.430;23.136;2024-03-17T14:24:33;62537.69;;;-145.99;100.00
46722;BME280;32455;43.430;23.136;2024-03-17T14:27:19;62537.69;;;-145.99;100.00
46722;BME280;32455;43.430;23.136;2024-03-17T14:30:06;62537.69;;;-145.99;100.00
46722;BME280;32455;43.430;23.136;2024-03-17T14:32:52;62537.69;;;-145.99;100.00
46722;BME280;32455;43.430;23.136;2024-03-17T14:35:37;62537.69;;;-145.99;100.00
46722;BME280;32455;43.430;23.136;2024-03-17T14:38:23;62537.69;;;-145.99;100.00
46722;BME280;32455;43.430;23.136;2024-03-17T20:59:36;98407.16;;;8.57;97.68
46722;BME280;32455;43.430;23.136;2024-03-17T21:02:21;98411.91;;;9.01;94.51
46722;BME280;32455;43.430;23.136;2024-03-17T21:05:07;98407.97;;;9.03;94.08
46722;BME280;32455;43.430;23.136;2024-03-17T21:07:54;98420.34;;;9.11;92.61
46722;BME280;32455;43.430;23.136;2024-03-17T21:10:40;98410.06;;;9.15;91.70
46722;BME280;32455;43.430;23.136;2024-03-17T21:13:25;98405.91;;;9.19;91.01
46722;BME280;32455;43.430;23.136;2024-03-17T21:16:10;98403.63;;;9.36;89.76
46722;BME280;32455;43.430;23.136;2024-03-17T21:18:56;98410.97;;;9.67;85.06
46722;BME280;32455;43.430;23.136;2024-03-17T21:21:41;98413.06;;;9.65;85.76
46722;BME280;32455;43.430;23.136;2024-03-17T21:24:27;98415.94;;;9.70;84.57
46722;BME280;32455;43.430;23.136;2024-03-17T21:27:12;98410.78;;;9.68;84.92
46722;BME280;32455;43.430;23.136;2024-03-17T21:29:58;98413.06;;;9.58;84.52
46722;BME280;32455;43.430;23.136;2024-03-17T21:32:44;98402.28;;;9.71;81.62
46722;BME280;32455;43.430;23.136;2024-03-17T21:35:29;98408.47;;;9.85;81.75
46722;BME280;32455;43.430;23.136;2024-03-17T21:38:15;98411.34;;;9.84;79.49
46722;BME280;32455;43.430;23.136;2024-03-17T21:41:01;98409.00;;;10.00;77.03
46722;BME280;32455;43.430;23.136;2024-03-17T21:43:46;98406.25;;;10.14;75.52
46722;BME280;32455;43.430;23.136;2024-03-17T21:46:31;98413.09;;;10.10;74.59
46722;BME280;32455;43.430;23.136;2024-03-17T21:49:17;98406.06;;;10.15;73.92
46722;BME280;32455;43.430;23.136;2024-03-17T21:52:03;98398.69;;;9.97;75.88
46722;BME280;32455;43.430;23.136;2024-03-17T21:54:52;98405.50;;;10.07;74.29
46722;BME280;32455;43.430;23.136;2024-03-17T21:57:38;98405.38;;;10.33;72.79
46722;BME280;32455;43.430;23.136;2024-03-17T22:00:28;98407.56;;;10.04;73.87
46722;BME280;32455;43.430;23.136;2024-03-17T22:03:14;98416.66;;;10.03;73.88
46722;BME280;32455;43.430;23.136;2024-03-17T22:06:00;98401.13;;;10.06;73.97
46722;BME280;32455;43.430;23.136;2024-03-17T22:08:46;98399.28;;;10.06;73.49
46722;BME280;32455;43.430;23.136;2024-03-17T22:11:32;98398.03;;;10.09;73.71
46722;BME280;32455;43.430;23.136;2024-03-17T22:14:17;98406.38;;;9.94;75.62
46722;BME280;32455;43.430;23.136;2024-03-17T22:17:03;98393.13;;;9.99;75.15
46722;BME280;32455;43.430;23.136;2024-03-17T22:19:48;98390.09;;;9.82;76.63
46722;BME280;32455;43.430;23.136;2024-03-17T22:22:36;98391.56;;;9.78;76.42
46722;BME280;32455;43.430;23.136;2024-03-17T22:25:22;98387.50;;;9.56;77.39
46722;BME280;32455;43.430;23.136;2024-03-17T22:28:09;98384.38;;;9.59;78.40
46722;BME280;32455;43.430;23.136;2024-03-17T22:30:56;98389.00;;;9.96;76.06
46722;BME280;32455;43.430;23.136;2024-03-17T22:33:42;98374.00;;;9.75;77.24
46722;BME280;32455;43.430;23.136;2024-03-17T22:36:27;98379.75;;;9.86;76.07
46722;BME280;32455;43.430;23.136;2024-03-17T22:39:12;98375.44;;;9.78;77.44
46722;BME280;32455;43.430;23.136;2024-03-17T22:41:58;98373.22;;;9.68;77.72
46722;BME280;32455;43.430;23.136;2024-03-17T22:44:43;98368.50;;;9.64;77.88
46722;BME280;32455;43.430;23.136;2024-03-17T22:47:28;98367.66;;;9.63;79.00
46722;BME280;32455;43.430;23.136;2024-03-17T22:50:13;98375.88;;;9.75;76.66
46722;BME280;32455;43.430;23.136;2024-03-17T22:52:59;98359.94;;;9.80;77.45
46722;BME280;32455;43.430;23.136;2024-03-17T22:55:48;98361.22;;;9.77;77.51
46722;BME280;32455;43.430;23.136;2024-03-17T22:58:35;98364.09;;;9.76;78.03
46722;BME280;32455;43.430;23.136;2024-03-17T23:01:25;98359.31;;;9.85;77.47
46722;BME280;32455;43.430;23.136;2024-03-17T23:04:17;98358.94;;;9.74;77.22
46722;BME280;32455;43.430;23.136;2024-03-17T23:07:06;98357.44;;;9.92;76.13
46722;BME280;32455;43.430;23.136;2024-03-17T23:09:51;98357.84;;;9.89;75.96
46722;BME280;32455;43.430;23.136;2024-03-17T23:12:37;98351.53;;;9.70;77.99
46722;BME280;32455;43.430;23.136;2024-03-17T23:15:22;98356.25;;;9.81;77.10
46722;BME280;32455;43.430;23.136;2024-03-17T23:18:08;98357.91;;;9.82;78.04
46722;BME280;32455;43.430;23.136;2024-03-17T23:20:56;98354.81;;;9.78;76.97
46722;BME280;32455;43.430;23.136;2024-03-17T23:23:42;98348.09;;;9.56;79.59
46722;BME280;32455;43.430;23.136;2024-03-17T23:26:26;98358.22;;;9.41;80.00